Time;durP1;ratioP1;P1;durP2;ratioP2;P2;SDS_P1;SDS_P2;PMS_P1;PMS_P2;Temp;Humidity;BMP_temperature;BMP_pressure;BME280_temperature;BME280_humidity;BME280_pressure;Samples;Min_cycle;Max_cycle;Signal;HPM_P1;HPM_P2
2022/02/18 00:00:33;;;;;;;;;6.75;5.00;;;;;13.60;55.74;100636.50;5060804;28;45715;-84
2022/02/18 00:03:00;;;;;;;;;6.25;5.25;;;;;13.48;55.44;100616.44;5065568;28;46510;-84
2022/02/18 00:05:26;;;;;;;;;6.25;5.00;;;;;13.29;55.40;100575.03;5056826;28;46194;-86
2022/02/18 00:08:18;;;;;;;;;7.75;4.75;;;;;13.07;55.56;100538.25;5077873;28;45722;-88
2022/02/18 00:10:53;;;;;;;;;6.75;3.25;;;;;13.34;55.52;100565.78;4986990;28;45990;-85
2022/02/18 00:13:19;;;;;;;;;6.50;3.75;;;;;13.30;55.34;100561.75;4972264;28;48424;-88
2022/02/18 00:15:45;;;;;;;;;9.25;4.00;;;;;13.64;55.89;100615.06;4982533;28;46116;-84
2022/02/18 00:18:11;;;;;;;;;5.50;3.25;;;;;13.42;56.16;100579.16;4967542;28;45739;-86
2022/02/18 00:20:40;;;;;;;;;8.75;5.25;;;;;13.38;55.69;100567.22;4979924;28;46011;-85
2022/02/18 00:23:10;;;;;;;;;14.00;9.75;;;;;13.45;56.27;100585.94;4983556;28;45786;-84
2022/02/18 00:25:38;;;;;;;;;10.00;6.25;;;;;13.36;56.13;100577.03;4974928;28;46119;-87
2022/02/18 00:28:05;;;;;;;;;6.00;5.25;;;;;13.33;56.31;100555.41;4975845;28;46327;-85
2022/02/18 00:30:31;;;;;;;;;6.50;5.75;;;;;13.38;56.49;100571.66;4976097;28;45641;-83
2022/02/18 00:32:57;;;;;;;;;11.00;7.25;;;;;13.51;56.84;100600.41;4975879;28;46368;-86
2022/02/18 00:35:29;;;;;;;;;8.50;5.00;;;;;13.53;56.87;100594.06;4976735;28;46365;-84
2022/02/18 00:37:54;;;;;;;;;8.25;4.00;;;;;13.45;57.05;100594.69;4991336;28;45769;-89
2022/02/18 00:40:21;;;;;;;;;10.25;5.50;;;;;13.52;56.68;100594.16;4975631;28;45943;-86
2022/02/18 00:42:47;;;;;;;;;5.50;4.50;;;;;13.22;57.06;100535.25;4993638;28;48575;-86
2022/02/18 00:45:13;;;;;;;;;5.50;3.75;;;;;13.34;57.22;100550.00;4974365;28;46572;-86
2022/02/18 00:47:39;;;;;;;;;5.50;3.25;;;;;13.44;56.92;100558.78;5020635;28;45703;-86
2022/02/18 00:50:05;;;;;;;;;9.50;6.00;;;;;13.47;57.27;100552.44;5053938;28;45615;-87
2022/02/18 00:52:30;;;;;;;;;7.75;5.75;;;;;13.29;57.44;100503.97;5077294;27;48729;-85
2022/02/18 00:54:57;;;;;;;;;6.50;5.00;;;;;13.38;57.26;100521.66;5060052;28;46077;-83
2022/02/18 00:57:23;;;;;;;;;5.00;4.00;;;;;13.33;57.52;100495.69;5056127;28;45847;-87
2022/02/18 00:59:48;;;;;;;;;4.00;2.50;;;;;13.47;57.70;100520.03;5054414;28;45933;-86
2022/02/18 01:02:14;;;;;;;;;8.25;4.00;;;;;13.54;57.66;100535.19;5055538;28;45900;-86
2022/02/18 01:04:39;;;;;;;;;4.50;2.75;;;;;13.53;57.79;100530.03;5053178;28;47121;-84
2022/02/18 01:10:14;;;;;;;;;4.50;3.50;;;;;13.54;57.48;100523.81;4963729;28;45853;-85
2022/02/18 01:12:41;;;;;;;;;6.25;4.25;;;;;13.55;57.77;100525.50;4920461;28;47303;-84
2022/02/18 01:15:12;;;;;;;;;4.00;2.75;;;;;13.57;58.12;100505.13;4922262;28;46895;-84
2022/02/18 01:17:40;;;;;;;;;7.00;5.00;;;;;13.55;57.89;100499.97;4932605;28;45756;-86
2022/02/18 01:20:10;;;;;;;;;6.25;3.00;;;;;13.32;58.10;100451.97;4936272;28;45753;-84
2022/02/18 01:22:37;;;;;;;;;4.00;3.00;;;;;13.56;57.95;100466.59;4915079;28;47756;-85
2022/02/18 01:25:04;;;;;;;;;4.00;3.00;;;;;13.57;58.25;100460.38;4935914;28;47161;-85
2022/02/18 01:27:29;;;;;;;;;5.50;5.00;;;;;13.37;58.09;100435.78;4935796;28;45852;-86
2022/02/18 01:29:55;;;;;;;;;7.00;5.00;;;;;13.54;58.32;100461.50;4937107;28;45607;-87
2022/02/18 01:32:20;;;;;;;;;8.50;4.00;;;;;13.54;58.31;100460.66;4930721;28;46986;-87
2022/02/18 01:34:46;;;;;;;;;7.75;4.75;;;;;13.43;58.52;100430.00;4918843;28;47203;-86
2022/02/18 01:37:11;;;;;;;;;7.25;4.25;;;;;13.28;58.89;100412.88;4921617;28;45778;-84
2022/02/18 01:39:37;;;;;;;;;5.00;4.00;;;;;13.34;58.99;100414.97;4937311;28;45822;-84
2022/02/18 01:42:03;;;;;;;;;10.00;4.25;;;;;13.23;59.24;100375.59;4918967;28;47463;-85
2022/02/18 01:44:38;;;;;;;;;3.00;3.00;;;;;13.17;59.51;100369.06;4914886;28;46319;-86
2022/02/18 01:47:06;;;;;;;;;5.25;5.00;;;;;13.48;59.76;100409.38;4950785;28;45814;-84
2022/02/18 01:49:31;;;;;;;;;3.75;3.75;;;;;13.47;59.70;100414.75;5009345;28;45896;-85
2022/02/18 01:51:58;;;;;;;;;4.75;4.00;;;;;13.44;59.86;100403.50;5060550;28;46015;-85
2022/02/18 01:54:23;;;;;;;;;5.00;4.00;;;;;13.25;60.16;100373.66;5058564;28;45555;-90
2022/02/18 01:56:49;;;;;;;;;3.00;3.00;;;;;13.44;60.98;100385.09;5056058;28;46067;-85
2022/02/18 01:59:15;;;;;;;;;6.75;5.00;;;;;13.42;61.00;100387.03;5024266;28;45546;-89
2022/02/18 02:01:43;;;;;;;;;5.50;4.00;;;;;13.41;61.02;100382.75;5039338;28;46573;-85
2022/02/18 02:04:08;;;;;;;;;8.25;5.00;;;;;13.24;61.19;100354.41;5056901;28;46776;-86
2022/02/18 02:06:34;;;;;;;;;7.25;5.00;;;;;13.38;62.29;100367.22;5051976;28;45700;-86
2022/02/18 02:09:06;;;;;;;;;10.00;7.75;;;;;13.27;62.24;100350.69;5056004;28;45716;-86
2022/02/18 02:11:32;;;;;;;;;9.75;5.00;;;;;12.96;62.66;100302.47;5055512;28;46037;-88
2022/02/18 02:14:03;;;;;;;;;5.25;4.25;;;;;12.99;62.94;100310.97;5056909;28;46129;-85
2022/02/18 02:16:31;;;;;;;;;5.25;5.00;;;;;12.82;63.15;100272.13;5032849;28;45842;-85
2022/02/18 02:19:05;;;;;;;;;4.50;4.25;;;;;12.94;63.68;100286.03;5038360;28;45989;-84
2022/02/18 02:21:30;;;;;;;;;5.00;4.25;;;;;13.27;63.83;100341.00;5054050;28;46013;-86
2022/02/18 02:23:56;;;;;;;;;4.50;4.50;;;;;12.71;63.70;100245.09;5057091;28;46168;-86
2022/02/18 02:26:21;;;;;;;;;4.75;4.50;;;;;13.24;64.26;100327.28;5035475;28;46012;-85
2022/02/18 02:28:47;;;;;;;;;7.00;5.00;;;;;12.92;64.13;100266.91;5069210;28;45911;-85
2022/02/18 02:31:13;;;;;;;;;6.25;5.00;;;;;13.07;64.52;100309.44;5052564;28;47563;-86
2022/02/18 02:33:38;;;;;;;;;6.50;5.00;;;;;13.17;64.77;100307.75;5039795;28;47304;-87
2022/02/18 02:36:05;;;;;;;;;4.75;4.00;;;;;13.09;64.63;100297.00;5035712;28;46213;-85
2022/02/18 02:38:31;;;;;;;;;3.50;3.00;;;;;12.83;64.90;100255.41;5036300;28;46130;-85
2022/02/18 02:40:57;;;;;;;;;5.00;4.25;;;;;13.09;65.33;100283.84;5059568;28;45691;-86
2022/02/18 02:43:22;;;;;;;;;5.25;3.50;;;;;13.00;65.19;100267.09;5055843;28;47104;-86
2022/02/18 02:45:48;;;;;;;;;4.00;4.00;;;;;13.20;65.38;100286.41;5062911;28;45622;-86
2022/02/18 02:48:14;;;;;;;;;3.00;3.00;;;;;13.21;65.79;100267.88;5052858;28;45795;-87
2022/02/18 02:50:39;;;;;;;;;4.25;3.75;;;;;13.22;65.93;100273.97;5056862;28;47249;-86
2022/02/18 02:53:04;;;;;;;;;4.50;4.00;;;;;12.92;65.54;100211.69;5072150;28;47053;-87
2022/02/18 02:55:30;;;;;;;;;4.00;3.50;;;;;13.22;66.25;100264.28;5048605;28;45768;-86
2022/02/18 02:57:55;;;;;;;;;3.00;3.00;;;;;12.90;66.46;100197.84;5056142;28;45896;-87
2022/02/18 03:00:21;;;;;;;;;4.00;4.00;;;;;13.06;66.13;100218.38;5057823;28;48510;-87
2022/02/18 03:02:46;;;;;;;;;4.25;4.00;;;;;13.25;66.71;100242.13;5077372;28;45776;-86
2022/02/18 03:05:13;;;;;;;;;3.00;3.00;;;;;12.98;66.66;100185.69;5069897;28;45906;-86
2022/02/18 03:07:39;;;;;;;;;4.00;3.00;;;;;13.17;67.34;100199.91;5074484;28;45680;-85
2022/02/18 03:10:05;;;;;;;;;2.50;2.50;;;;;12.74;67.34;100137.06;5068230;28;45871;-87
2022/02/18 03:12:31;;;;;;;;;2.75;2.75;;;;;13.26;67.94;100210.44;5067043;28;46701;-85
2022/02/18 03:14:58;;;;;;;;;3.00;3.00;;;;;13.11;68.15;100179.34;5072560;28;45998;-86
2022/02/18 03:17:24;;;;;;;;;1.50;1.00;;;;;12.93;68.88;100139.72;5068225;28;45755;-86
2022/02/18 03:19:49;;;;;;;;;1.25;1.25;;;;;13.27;68.45;100196.31;5056826;28;48542;-88
2022/02/18 03:22:14;;;;;;;;;0.00;0.00;;;;;13.28;69.25;100200.59;5075261;28;47545;-87
2022/02/18 03:24:40;;;;;;;;;1.00;1.00;;;;;13.11;69.82;100182.81;5073558;28;45659;-86
2022/02/18 03:27:05;;;;;;;;;0.00;0.00;;;;;12.99;70.80;100142.66;5065850;28;45803;-88
2022/02/18 03:29:32;;;;;;;;;1.00;1.00;;;;;12.93;70.30;100123.97;5065527;28;47377;-85
2022/02/18 03:31:57;;;;;;;;;1.75;1.00;;;;;13.29;71.03;100175.09;5056481;28;47344;-86
2022/02/18 03:34:25;;;;;;;;;1.00;1.00;;;;;12.92;70.89;100120.50;5057347;28;45813;-88
2022/02/18 03:36:50;;;;;;;;;0.00;0.00;;;;;13.31;71.22;100175.81;5054594;28;46173;-86
2022/02/18 03:39:16;;;;;;;;;0.00;0.00;;;;;13.24;71.27;100166.78;5075051;28;47258;-85
2022/02/18 03:41:41;;;;;;;;;0.00;0.00;;;;;13.03;71.11;100130.88;5046694;28;47326;-88
2022/02/18 03:44:10;;;;;;;;;0.00;0.00;;;;;13.38;70.99;100176.94;5062141;28;46160;-86
2022/02/18 03:46:36;;;;;;;;;0.00;0.00;;;;;13.33;71.35;100174.69;5066023;28;45671;-86
2022/02/18 03:49:07;;;;;;;;;0.00;0.00;;;;;13.40;71.10;100165.28;5069327;28;46615;-85
2022/02/18 03:51:32;;;;;;;;;0.00;0.00;;;;;13.23;70.80;100131.75;5050787;28;47006;-85
2022/02/18 03:53:58;;;;;;;;;0.00;0.00;;;;;13.25;70.79;100148.25;5055918;28;45807;-82
2022/02/18 03:56:23;;;;;;;;;0.00;0.00;;;;;13.49;70.93;100154.91;5072906;28;45604;-84
2022/02/18 03:58:49;;;;;;;;;0.00;0.00;;;;;13.50;70.91;100181.06;5069876;28;47496;-84
2022/02/18 04:01:14;;;;;;;;;0.00;0.00;;;;;13.38;70.85;100135.66;5056168;28;46239;-83
2022/02/18 04:03:45;;;;;;;;;0.00;0.00;;;;;13.53;71.12;100157.13;5072273;28;46365;-85
2022/02/18 04:06:11;;;;;;;;;0.00;0.00;;;;;13.34;70.45;100126.38;5056778;28;47065;-83
2022/02/18 04:08:37;;;;;;;;;0.00;0.00;;;;;13.09;70.24;100063.75;5071834;28;46531;-84
2022/02/18 04:11:03;;;;;;;;;0.00;0.00;;;;;13.39;70.73;100089.94;5075067;28;46870;-88
2022/02/18 04:13:28;;;;;;;;;0.00;0.00;;;;;13.25;70.53;100082.47;5075594;28;45631;-86
2022/02/18 04:15:54;;;;;;;;;0.00;0.00;;;;;13.30;70.44;100092.59;5072508;28;45783;-85
2022/02/18 04:18:19;;;;;;;;;0.00;0.00;;;;;13.59;70.46;100125.00;5075000;28;45589;-84
2022/02/18 04:20:45;;;;;;;;;0.00;0.00;;;;;13.17;70.54;100053.41;5066748;28;45737;-84
2022/02/18 04:23:11;;;;;;;;;0.00;0.00;;;;;13.60;70.70;100125.81;5072778;28;45581;-85
2022/02/18 04:25:36;;;;;;;;;0.00;0.00;;;;;13.41;70.71;100090.66;5060262;28;45936;-83
2022/02/18 04:28:05;;;;;;;;;0.00;0.00;;;;;13.62;70.23;100108.06;5079141;28;45984;-85
2022/02/18 04:30:31;;;;;;;;;0.00;0.00;;;;;13.63;70.74;100115.00;5079432;28;45723;-84
2022/02/18 04:32:56;;;;;;;;;0.00;0.00;;;;;13.62;70.41;100095.75;5055285;28;45761;-87
2022/02/18 04:35:23;;;;;;;;;0.00;0.00;;;;;13.52;70.30;100084.41;5060396;28;46482;-88
2022/02/18 04:37:49;;;;;;;;;0.00;0.00;;;;;13.50;70.04;100077.59;5076831;27;47590;-83
2022/02/18 04:40:16;;;;;;;;;0.00;0.00;;;;;13.38;70.24;100062.00;5078122;27;46149;-83
2022/02/18 04:42:43;;;;;;;;;0.00;0.00;;;;;13.07;70.16;100002.56;5058051;27;46157;-86
2022/02/18 04:45:12;;;;;;;;;0.00;0.00;;;;;13.50;70.07;100067.91;5076598;27;46026;-85
2022/02/18 04:47:39;;;;;;;;;0.00;0.00;;;;;13.64;70.12;100080.66;5058414;28;47291;-84
2022/02/18 04:50:05;;;;;;;;;0.00;0.00;;;;;13.64;70.06;100075.38;5052039;27;47966;-84
2022/02/18 04:52:31;;;;;;;;;0.00;0.00;;;;;13.39;70.25;100036.47;5092147;27;46307;-88
2022/02/18 04:54:58;;;;;;;;;0.00;0.00;;;;;13.54;70.38;100066.69;5079629;27;46018;-85
2022/02/18 04:57:23;;;;;;;;;0.00;0.00;;;;;13.66;70.35;100077.84;5059423;28;47561;-83
2022/02/18 04:59:48;;;;;;;;;0.00;0.00;;;;;13.65;70.07;100081.47;5058786;28;46944;-85
2022/02/18 05:02:16;;;;;;;;;0.00;0.00;;;;;13.31;69.97;100017.97;5075834;27;45616;-84
2022/02/18 05:04:42;;;;;;;;;0.00;0.00;;;;;13.45;69.77;100022.75;5075613;27;45898;-84
2022/02/18 05:07:07;;;;;;;;;0.00;0.00;;;;;13.14;70.38;99987.94;5071960;27;47356;-84
2022/02/18 05:09:33;;;;;;;;;0.00;0.00;;;;;13.41;70.04;100018.75;5063865;28;47408;-84
2022/02/18 05:11:58;;;;;;;;;0.00;0.00;;;;;13.34;70.51;99996.63;5057643;28;45983;-84
2022/02/18 05:14:24;;;;;;;;;0.00;0.00;;;;;13.27;70.71;99992.91;5073898;27;45802;-84
2022/02/18 05:16:49;;;;;;;;;0.00;0.00;;;;;13.61;70.42;100028.28;5075632;27;45921;-84
2022/02/18 05:19:16;;;;;;;;;0.25;0.00;;;;;13.60;70.15;100031.91;5090071;27;46978;-84
2022/02/18 05:21:44;;;;;;;;;0.00;0.00;;;;;13.49;70.94;100010.19;5076707;27;45514;-84
2022/02/18 05:24:09;;;;;;;;;0.00;0.00;;;;;13.45;70.76;99996.44;5057352;28;45886;-83
2022/02/18 05:26:36;;;;;;;;;0.00;0.00;;;;;13.40;70.71;99993.41;5076248;27;46462;-82
2022/02/18 05:29:04;;;;;;;;;0.00;0.00;;;;;13.59;70.78;100024.97;5086135;27;47352;-83
2022/02/18 05:31:32;;;;;;;;;0.00;0.00;;;;;13.43;70.56;99980.81;5061997;27;45706;-83
2022/02/18 05:33:59;;;;;;;;;0.00;0.00;;;;;13.48;70.31;99983.03;5071422;27;45703;-85
2022/02/18 05:36:24;;;;;;;;;0.00;0.00;;;;;13.40;70.59;99972.38;5082369;27;47725;-84
2022/02/18 05:38:49;;;;;;;;;0.00;0.00;;;;;13.53;70.91;99977.31;5075120;27;45757;-83
2022/02/18 05:41:19;;;;;;;;;0.00;0.00;;;;;13.43;70.53;99965.03;5053352;28;45716;-84
2022/02/18 05:43:44;;;;;;;;;0.00;0.00;;;;;13.25;70.89;99927.28;5047675;28;45799;-85
2022/02/18 05:46:10;;;;;;;;;1.00;0.00;;;;;13.27;70.79;99919.25;5051750;28;48616;-84
2022/02/18 05:48:35;;;;;;;;;0.00;0.00;;;;;13.27;70.65;99932.41;5052575;28;47045;-85
2022/02/18 05:51:02;;;;;;;;;1.00;0.00;;;;;13.26;71.26;99923.69;5054245;28;45772;-85
2022/02/18 05:53:28;;;;;;;;;0.00;0.00;;;;;13.28;70.94;99934.06;5046112;28;46048;-85
2022/02/18 05:55:53;;;;;;;;;0.00;0.00;;;;;13.53;70.83;99953.66;5056630;28;45759;-84
2022/02/18 05:58:19;;;;;;;;;0.00;0.00;;;;;13.42;70.57;99923.06;5051097;28;48503;-86
2022/02/18 06:00:48;;;;;;;;;0.00;0.00;;;;;13.54;71.10;99945.63;5069233;27;45973;-85
2022/02/18 06:03:14;;;;;;;;;0.00;0.00;;;;;13.34;70.88;99908.00;5053947;28;46088;-86
2022/02/18 06:05:40;;;;;;;;;0.00;0.00;;;;;13.28;71.00;99882.25;5051766;28;47542;-85
2022/02/18 06:08:06;;;;;;;;;0.00;0.00;;;;;13.49;70.85;99931.22;5070817;27;47177;-83
2022/02/18 06:10:37;;;;;;;;;0.00;0.00;;;;;13.46;70.97;99900.75;5054188;28;46040;-88
2022/02/18 06:13:03;;;;;;;;;0.00;0.00;;;;;13.43;71.07;99895.78;5049258;28;45733;-84
2022/02/18 06:15:29;;;;;;;;;0.00;0.00;;;;;13.54;71.03;99921.09;5051840;28;46369;-83
2022/02/18 06:17:54;;;;;;;;;0.00;0.00;;;;;13.54;70.64;99911.41;5062385;28;45614;-85
2022/02/18 06:20:20;;;;;;;;;0.00;0.00;;;;;13.40;70.64;99883.75;5054801;28;45813;-86
2022/02/18 06:22:45;;;;;;;;;0.00;0.00;;;;;13.24;70.50;99856.38;5061965;28;45544;-84
2022/02/18 06:25:13;;;;;;;;;0.00;0.00;;;;;13.24;70.84;99846.69;5058763;28;47509;-87
2022/02/18 06:27:39;;;;;;;;;0.00;0.00;;;;;13.35;70.83;99867.56;5058883;28;45871;-87
2022/02/18 06:30:06;;;;;;;;;0.50;0.00;;;;;13.16;70.51;99830.00;5056626;28;45814;-86
2022/02/18 06:32:35;;;;;;;;;0.00;0.00;;;;;13.47;70.76;99877.91;5057569;28;45929;-89
2022/02/18 06:35:00;;;;;;;;;0.00;0.00;;;;;13.54;70.62;99898.25;5056731;28;46665;-89
2022/02/18 06:37:28;;;;;;;;;0.00;0.00;;;;;13.22;70.81;99832.88;5058983;28;46455;-83
2022/02/18 06:39:54;;;;;;;;;0.00;0.00;;;;;13.48;70.84;99869.88;5065292;28;45748;-90
2022/02/18 06:42:20;;;;;;;;;0.00;0.00;;;;;13.36;70.70;99858.69;5070873;27;45667;-85
2022/02/18 06:44:45;;;;;;;;;0.50;0.00;;;;;13.25;70.73;99837.00;5057355;28;47394;-85
2022/02/18 06:47:11;;;;;;;;;0.00;0.00;;;;;13.25;70.64;99822.06;5075489;27;46227;-88
2022/02/18 06:49:36;;;;;;;;;0.00;0.00;;;;;13.53;70.36;99866.78;5075941;27;45649;-86
2022/02/18 06:52:02;;;;;;;;;0.00;0.00;;;;;13.42;70.83;99855.50;5075059;27;45735;-85
2022/02/18 06:54:31;;;;;;;;;1.00;0.00;;;;;13.54;70.66;99885.09;5074653;27;47843;-85
2022/02/18 06:57:00;;;;;;;;;0.00;0.00;;;;;13.53;70.75;99859.72;5075734;28;46186;-87
2022/02/18 06:59:26;;;;;;;;;0.00;0.00;;;;;13.26;70.44;99810.56;5063549;27;45712;-86
2022/02/18 07:01:54;;;;;;;;;1.00;0.00;;;;;13.33;70.38;99823.97;5090318;27;45797;-86
2022/02/18 07:04:21;;;;;;;;;0.00;0.00;;;;;13.52;70.61;99844.06;5055151;28;47608;-85
2022/02/18 07:06:46;;;;;;;;;0.00;0.00;;;;;13.39;70.31;99823.34;5055697;28;46749;-87
2022/02/18 07:09:14;;;;;;;;;0.00;0.00;;;;;13.35;70.39;99803.59;5077218;28;45783;-85
2022/02/18 07:11:40;;;;;;;;;0.50;0.00;;;;;13.55;70.60;99843.81;5075227;28;45981;-86
2022/02/18 07:14:10;;;;;;;;;0.00;0.00;;;;;13.53;70.04;99843.13;5089808;27;47192;-86
2022/02/18 07:16:39;;;;;;;;;0.00;0.00;;;;;13.36;70.00;99810.50;5077210;28;46305;-87
2022/02/18 07:19:08;;;;;;;;;0.00;0.00;;;;;13.43;70.02;99814.22;5062919;28;45816;-86
2022/02/18 07:21:33;;;;;;;;;0.00;0.00;;;;;13.37;69.96;99810.38;5078011;28;45606;-88
2022/02/18 07:24:09;;;;;;;;;1.50;0.50;;;;;13.04;69.86;99745.16;5083365;28;46097;-85
2022/02/18 07:26:35;;;;;;;;;0.00;0.00;;;;;13.45;69.87;99822.78;5061262;28;47330;-87
2022/02/18 07:29:00;;;;;;;;;0.50;0.00;;;;;13.40;69.76;99823.22;5077634;28;45870;-89
2022/02/18 07:31:26;;;;;;;;;0.75;0.00;;;;;13.59;69.96;99824.94;5077581;28;45551;-87
2022/02/18 07:33:54;;;;;;;;;1.00;0.50;;;;;13.59;70.30;99821.47;5077616;28;47611;-90
2022/02/18 07:36:22;;;;;;;;;0.00;0.00;;;;;13.60;69.95;99817.88;5060280;28;46950;-88
2022/02/18 07:38:48;;;;;;;;;0.50;0.00;;;;;13.25;69.75;99753.66;5062405;28;45801;-87
2022/02/18 07:41:14;;;;;;;;;0.00;0.00;;;;;13.37;69.67;99781.44;5079158;28;45521;-88
2022/02/18 07:43:40;;;;;;;;;0.00;0.00;;;;;13.30;69.78;99758.47;5061398;28;48258;-89
2022/02/18 07:46:08;;;;;;;;;1.00;1.00;;;;;13.63;69.73;99807.03;5076347;28;48074;-88
2022/02/18 07:48:34;;;;;;;;;0.25;0.00;;;;;13.07;69.70;99726.44;5059132;28;45855;-88
2022/02/18 07:51:00;;;;;;;;;0.00;0.00;;;;;13.66;69.40;99825.16;5060160;28;45942;-87
2022/02/18 07:53:30;;;;;;;;;0.00;0.00;;;;;13.15;69.63;99736.28;5076795;28;47347;-86
2022/02/18 07:55:58;;;;;;;;;0.00;0.00;;;;;13.13;69.33;99714.53;5059114;28;46705;-88
2022/02/18 07:58:25;;;;;;;;;0.00;0.00;;;;;13.67;69.26;99805.75;5059206;28;45855;-87
2022/02/18 08:00:51;;;;;;;;;0.00;0.00;;;;;13.61;69.09;99794.00;5062187;28;45751;-87
2022/02/18 08:06:38;;;;;;;;;0.00;0.00;;;;;13.68;69.36;99795.09;5086362;28;45767;-87
2022/02/18 08:09:04;;;;;;;;;0.00;0.00;;;;;13.41;69.08;99750.38;5083895;28;45658;-88
2022/02/18 08:11:30;;;;;;;;;0.00;0.00;;;;;13.33;69.28;99718.75;5082989;28;45319;-87
2022/02/18 08:13:59;;;;;;;;;0.00;0.00;;;;;13.36;68.99;99732.41;5083434;28;48210;-89
2022/02/18 08:16:26;;;;;;;;;0.00;0.00;;;;;13.71;69.14;99770.28;5069399;28;46907;-87
2022/02/18 08:18:54;;;;;;;;;0.00;0.00;;;;;13.60;68.94;99731.03;5070136;28;45494;-89
2022/02/18 08:21:19;;;;;;;;;0.00;0.00;;;;;13.74;68.81;99757.63;5084305;28;45634;-87
2022/02/18 08:23:46;;;;;;;;;1.00;0.00;;;;;13.53;68.49;99720.25;5083251;28;47508;-88
2022/02/18 08:26:12;;;;;;;;;0.00;0.00;;;;;13.58;68.62;99722.44;5069829;28;47055;-86
2022/02/18 08:28:38;;;;;;;;;1.00;0.00;;;;;13.43;68.69;99701.06;5068539;28;45644;-88
2022/02/18 08:31:04;;;;;;;;;0.00;0.00;;;;;13.80;68.38;99753.56;5069838;28;45522;-87
2022/02/18 08:36:51;;;;;;;;;0.00;0.00;;;;;13.43;68.86;99699.28;5080259;28;45972;-87
2022/02/18 08:39:17;;;;;;;;;1.00;0.00;;;;;13.82;68.31;99730.53;5061374;28;45588;-89
2022/02/18 08:41:43;;;;;;;;;0.00;0.00;;;;;13.83;68.33;99732.19;5061497;28;45924;-88
2022/02/18 08:44:09;;;;;;;;;0.50;0.00;;;;;13.63;68.47;99705.22;5060725;28;48523;-88
2022/02/18 08:46:35;;;;;;;;;0.00;0.00;;;;;13.85;68.71;99740.78;5060474;28;47000;-88
2022/02/18 08:49:00;;;;;;;;;0.00;0.00;;;;;13.29;68.45;99664.75;5061591;28;45662;-89
2022/02/18 08:51:26;;;;;;;;;0.00;0.00;;;;;13.74;68.43;99746.28;5082690;28;46086;-90
2022/02/18 08:53:52;;;;;;;;;0.75;0.00;;;;;13.55;68.24;99717.47;5090253;28;48617;-89
2022/02/18 08:56:18;;;;;;;;;1.00;0.00;;;;;13.84;68.61;99766.28;5087582;28;46960;-86
2022/02/18 08:58:45;;;;;;;;;0.00;0.00;;;;;13.73;68.51;99731.44;5066865;28;45679;-89
2022/02/18 09:01:11;;;;;;;;;0.00;0.00;;;;;13.50;68.35;99710.00;5061777;28;45615;-88
2022/02/18 09:06:59;;;;;;;;;0.00;0.00;;;;;13.65;68.95;99705.91;5079640;28;45682;-88
2022/02/18 09:09:24;;;;;;;;;1.00;0.00;;;;;13.81;68.69;99736.81;5078397;28;45743;-88
2022/02/18 09:11:50;;;;;;;;;1.00;0.00;;;;;13.52;68.91;99678.28;5078330;28;45608;-88
2022/02/18 09:14:16;;;;;;;;;0.00;0.00;;;;;13.98;68.50;99750.94;5083763;28;47480;-89
2022/02/18 09:16:43;;;;;;;;;1.00;0.00;;;;;13.98;68.75;99749.13;5062608;28;46294;-87
2022/02/18 09:19:09;;;;;;;;;1.00;0.25;;;;;13.55;69.02;99686.69;5060734;28;45693;-89
2022/02/18 09:21:34;;;;;;;;;0.75;0.00;;;;;13.68;69.29;99681.06;5079649;28;45500;-89
2022/02/18 09:24:00;;;;;;;;;0.00;0.00;;;;;13.93;69.54;99719.78;5061535;28;47366;-90
2022/02/18 09:26:26;;;;;;;;;0.00;0.00;;;;;13.71;70.02;99672.88;5081532;28;46337;-88
2022/02/18 09:28:53;;;;;;;;;0.00;0.00;;;;;13.36;69.91;99628.97;5061131;28;45577;-89
2022/02/18 09:31:19;;;;;;;;;0.00;0.00;;;;;13.90;70.21;99720.09;5079462;28;45809;-89
2022/02/18 09:37:15;;;;;;;;;0.00;0.00;;;;;13.52;70.88;99662.50;5079167;28;45794;-89
2022/02/18 09:39:45;;;;;;;;;1.00;0.00;;;;;13.53;71.03;99661.53;5078265;27;45525;-88
2022/02/18 09:42:24;;;;;;;;;;;;;;;;;;;;;
2022/02/18 09:45:25;;;;;;;;;;;;;;;;;;;;;
2022/02/18 09:47:55;;;;;;;;;0.75;0.00;;;;;13.80;72.27;99720.19;5081497;28;74537;-88
2022/02/18 09:50:21;;;;;;;;;0.00;0.00;;;;;13.79;73.66;99691.38;5071454;28;45805;-88
2022/02/18 09:52:46;;;;;;;;;1.00;0.00;;;;;13.36;73.91;99647.41;5063757;28;45559;-88
2022/02/18 09:55:12;;;;;;;;;0.00;0.00;;;;;13.72;73.65;99714.81;5078010;28;48025;-88
2022/02/18 09:57:44;;;;;;;;;0.00;0.00;;;;;13.43;73.30;99656.34;5078416;28;48135;-88
2022/02/18 10:00:11;;;;;;;;;0.00;0.00;;;;;13.30;73.90;99648.81;5077261;28;45545;-89
2022/02/18 10:02:40;;;;;;;;;0.00;0.00;;;;;13.50;73.81;99693.38;5083253;28;45077;-88
2022/02/18 10:05:07;;;;;;;;;0.00;0.00;;;;;13.67;73.84;99689.94;5100787;28;47767;-87
2022/02/18 10:07:33;;;;;;;;;0.50;0.00;;;;;13.49;73.89;99662.81;5085354;27;47145;-89
2022/02/18 10:10:12;;;;;;;;;0.00;0.00;;;;;13.67;73.96;99674.13;5074198;27;45561;-89
2022/02/18 10:12:38;;;;;;;;;0.00;0.00;;;;;13.23;73.57;99607.47;5094914;28;45742;-90
2022/02/18 10:15:09;;;;;;;;;1.00;0.00;;;;;13.70;73.89;99664.16;5065896;28;47070;-89
2022/02/18 10:17:40;;;;;;;;;0.00;0.00;;;;;13.37;74.14;99625.38;5059380;28;47040;-90
2022/02/18 10:20:20;;;;;;;;;0.00;0.00;;;;;13.58;74.28;99646.09;5059180;28;45668;-89
2022/02/18 10:23:09;;;;;;;;;0.00;0.00;;;;;13.50;73.76;99620.53;5058978;28;45549;-90
2022/02/18 10:26:14;;;;;;;;;0.00;0.00;;;;;13.24;73.92;99583.66;5063234;28;47603;-89
2022/02/18 10:28:53;;;;;;;;;0.00;0.00;;;;;13.41;73.77;99601.25;5060988;28;47134;-88
2022/02/18 10:31:19;;;;;;;;;0.00;0.00;;;;;13.26;73.72;99586.97;5101489;28;45336;-90
2022/02/18 10:34:09;;;;;;;;;0.00;0.00;;;;;13.83;73.18;99659.31;5098637;28;45485;-88
2022/02/18 10:36:40;;;;;;;;;0.00;0.00;;;;;13.70;73.27;99640.47;5080871;28;47399;-88
2022/02/18 10:39:38;;;;;;;;;0.00;0.00;;;;;13.64;73.25;99627.09;5076778;28;46786;-89
2022/02/18 10:42:08;;;;;;;;;1.00;0.00;;;;;13.92;72.79;99670.75;5075736;28;45663;-87
2022/02/18 10:44:44;;;;;;;;;0.00;0.00;;;;;13.67;72.84;99603.06;5093719;28;45540;-87
2022/02/18 10:51:14;;;;;;;;;;;;;;;;;;;;;
2022/02/18 10:54:22;;;;;;;;;0.50;0.00;;;;;13.40;72.67;99583.78;5080065;28;72510;-89
2022/02/18 10:57:29;;;;;;;;;0.00;0.00;;;;;13.90;73.13;99635.81;5065745;28;45483;-88
2022/02/18 11:00:03;;;;;;;;;0.00;0.00;;;;;13.40;72.52;99551.38;5085504;27;46419;-90
2022/02/18 11:03:00;;;;;;;;;1.00;0.00;;;;;13.95;72.61;99656.44;5066134;28;45746;-88
2022/02/18 11:06:01;;;;;;;;;0.75;0.00;;;;;13.31;72.64;99523.38;5069244;28;45738;-89
2022/02/18 11:08:28;;;;;;;;;0.00;0.00;;;;;13.87;72.42;99615.09;5028850;28;46060;-87
2022/02/18 11:10:53;;;;;;;;;0.25;0.00;;;;;14.00;71.99;99628.66;5001857;28;47429;-88
2022/02/18 11:13:19;;;;;;;;;0.00;0.00;;;;;14.02;72.22;99633.78;4999824;28;48034;-88
2022/02/18 11:15:45;;;;;;;;;0.00;0.00;;;;;14.04;71.94;99643.16;4998566;28;45791;-89
2022/02/18 11:18:11;;;;;;;;;0.00;0.00;;;;;13.93;72.73;99624.19;4998715;28;45687;-88
2022/02/18 11:20:38;;;;;;;;;0.00;0.00;;;;;14.06;72.75;99641.19;5015369;28;47481;-89
2022/02/18 11:23:07;;;;;;;;;0.00;0.00;;;;;14.07;72.60;99620.97;5000594;28;46886;-87
2022/02/18 11:25:36;;;;;;;;;0.00;0.00;;;;;14.08;72.70;99641.88;5015677;28;45701;-88
2022/02/18 11:28:04;;;;;;;;;0.00;0.00;;;;;13.93;73.25;99617.06;4999214;28;45694;-89
2022/02/18 11:30:32;;;;;;;;;0.00;0.00;;;;;13.75;73.38;99567.13;5016141;28;48341;-87
2022/02/18 11:33:22;;;;;;;;;0.00;0.00;;;;;14.09;73.19;99619.81;5014999;28;46320;-88
2022/02/18 11:35:59;;;;;;;;;0.00;0.00;;;;;13.97;74.13;99589.47;5020987;28;45717;-87
2022/02/18 11:39:05;;;;;;;;;0.00;0.00;;;;;14.02;73.89;99616.16;5021991;28;46099;-88
2022/02/18 11:41:46;;;;;;;;;0.00;0.00;;;;;13.98;73.99;99612.16;5018987;28;48434;-88
2022/02/18 11:44:13;;;;;;;;;0.00;0.00;;;;;13.58;74.54;99554.00;5017054;28;47165;-89
2022/02/18 11:46:40;;;;;;;;;1.00;0.00;;;;;13.57;75.11;99561.06;5083825;28;45711;-89
2022/02/18 11:49:09;;;;;;;;;0.00;0.00;;;;;13.83;75.46;99606.66;5077109;28;45635;-88
2022/02/18 11:51:45;;;;;;;;;5.25;3.50;;;;;13.87;75.44;99617.72;5061181;28;48340;-89
2022/02/18 11:54:30;;;;;;;;;1.75;0.00;;;;;13.66;75.65;99573.28;5062841;28;47296;-89
2022/02/18 11:57:08;;;;;;;;;0.00;0.00;;;;;13.70;76.05;99629.09;5061763;28;45647;-92
2022/02/18 11:59:45;;;;;;;;;0.00;0.00;;;;;13.57;77.19;99718.97;5078155;28;45512;-89